Time;durP1;ratioP1;P1;durP2;ratioP2;P2;SDS_P1;SDS_P2;PMS_P1;PMS_P2;Temp;Humidity;BMP_temperature;BMP_pressure;BME280_temperature;BME280_humidity;BME280_pressure;Samples;Min_cycle;Max_cycle;Signal;HPM_P1;HPM_P2
2023/08/27 00:01:02;;;;;;;2.83;0.90;;;;;;;;;;5062195;27;87770;-59
2023/08/27 00:03:31;;;;;;;2.23;1.10;;;;;;;;;;5063000;27;87466;-59
2023/08/27 00:06:03;;;;;;;1.20;0.80;;;;;;;;;;5062275;27;89603;-59
2023/08/27 00:08:32;;;;;;;0.80;0.80;;;;;;;;;;5061748;27;90012;-58
2023/08/27 00:11:04;;;;;;;0.60;0.50;;;;;;;;;;5061734;27;88681;-59
2023/08/27 00:13:32;;;;;;;0.70;0.67;;;;;;;;;;5062333;27;87606;-59
2023/08/27 00:16:02;;;;;;;1.00;0.80;;;;;;;;;;5061266;27;89630;-58
2023/08/27 00:18:32;;;;;;;0.73;0.70;;;;;;;;;;5061228;27;87766;-59
2023/08/27 00:21:01;;;;;;;0.70;0.70;;;;;;;;;;5061488;27;88792;-58
2023/08/27 00:23:29;;;;;;;1.13;0.83;;;;;;;;;;5061698;27;87467;-59
2023/08/27 00:25:57;;;;;;;0.97;0.87;;;;;;;;;;5061920;27;88545;-58
2023/08/27 00:28:30;;;;;;;1.33;0.80;;;;;;;;;;5062227;27;88170;-59
2023/08/27 00:31:04;;;;;;;0.87;0.87;;;;;;;;;;5062097;27;88928;-59
2023/08/27 00:33:34;;;;;;;0.87;0.70;;;;;;;;;;5062012;27;87857;-59
2023/08/27 00:36:02;;;;;;;0.70;0.60;;;;;;;;;;5060997;27;87512;-59
2023/08/27 00:38:31;;;;;;;0.73;0.60;;;;;;;;;;5061582;27;87940;-58
2023/08/27 00:40:59;;;;;;;1.07;0.50;;;;;;;;;;5061264;27;88918;-59
2023/08/27 00:43:30;;;;;;;0.50;0.50;;;;;;;;;;5061335;27;87621;-59
2023/08/27 00:46:02;;;;;;;0.87;0.73;;;;;;;;;;5061666;27;89802;-59
2023/08/27 00:48:33;;;;;;;1.10;1.00;;;;;;;;;;5060811;27;87607;-59
2023/08/27 00:51:03;;;;;;;0.70;0.70;;;;;;;;;;5060894;27;87792;-59
2023/08/27 00:53:34;;;;;;;0.97;0.80;;;;;;;;;;5060403;27;87526;-59
2023/08/27 00:56:03;;;;;;;1.57;1.17;;;;;;;;;;5061060;27;88393;-58
2023/08/27 00:58:35;;;;;;;1.90;1.00;;;;;;;;;;5060352;27;89909;-59
2023/08/27 01:01:05;;;;;;;3.03;1.20;;;;;;;;;;5060759;27;88553;-59
2023/08/27 01:03:35;;;;;;;4.20;2.00;;;;;;;;;;5061119;27;87630;-59
2023/08/27 01:06:04;;;;;;;3.43;2.00;;;;;;;;;;5060675;27;89711;-59
2023/08/27 01:08:35;;;;;;;3.43;2.27;;;;;;;;;;5060852;27;88776;-59
2023/08/27 01:11:06;;;;;;;2.37;1.87;;;;;;;;;;5060884;27;88881;-59
2023/08/27 01:13:38;;;;;;;5.53;1.80;;;;;;;;;;5060885;27;87262;-58
2023/08/27 01:16:06;;;;;;;4.00;2.07;;;;;;;;;;5060540;27;89675;-59
2023/08/27 01:18:35;;;;;;;4.60;2.30;;;;;;;;;;5060827;27;88083;-59
2023/08/27 01:21:18;;;;;;;3.93;2.40;;;;;;;;;;5060463;27;87759;-59
2023/08/27 01:23:49;;;;;;;4.13;2.27;;;;;;;;;;5060341;27;88293;-59
2023/08/27 01:26:20;;;;;;;5.07;2.50;;;;;;;;;;5060389;27;89607;-58
2023/08/27 01:28:51;;;;;;;5.10;2.33;;;;;;;;;;5060368;27;89142;-59
2023/08/27 01:31:21;;;;;;;3.87;2.60;;;;;;;;;;5060339;27;87777;-59
2023/08/27 01:33:51;;;;;;;4.47;2.10;;;;;;;;;;5061326;27;87115;-59
2023/08/27 01:36:23;;;;;;;4.03;1.87;;;;;;;;;;5060521;27;88540;-59
2023/08/27 01:38:51;;;;;;;4.33;2.30;;;;;;;;;;5060469;27;87988;-58
2023/08/27 01:41:21;;;;;;;2.50;2.00;;;;;;;;;;5060694;27;88829;-59
2023/08/27 01:43:49;;;;;;;3.97;2.40;;;;;;;;;;5060413;27;87642;-59
2023/08/27 01:46:19;;;;;;;5.63;3.10;;;;;;;;;;5060016;27;89696;-59
2023/08/27 01:48:47;;;;;;;2.67;2.37;;;;;;;;;;5059886;27;90201;-59
2023/08/27 01:51:16;;;;;;;3.60;2.10;;;;;;;;;;5059977;27;87401;-59
2023/08/27 01:53:47;;;;;;;3.53;2.13;;;;;;;;;;5057486;27;87605;-59
2023/08/27 01:56:16;;;;;;;4.17;2.10;;;;;;;;;;5057841;27;89746;-59
2023/08/27 01:58:44;;;;;;;2.70;1.97;;;;;;;;;;5057173;27;88226;-59
2023/08/27 02:01:13;;;;;;;3.53;2.17;;;;;;;;;;5055461;27;88869;-59
2023/08/27 02:03:43;;;;;;;2.70;2.30;;;;;;;;;;5055231;27;87497;-59
2023/08/27 02:06:11;;;;;;;3.73;1.90;;;;;;;;;;5063460;27;89864;-59
2023/08/27 02:08:40;;;;;;;4.90;2.90;;;;;;;;;;5064458;27;89084;-59
2023/08/27 02:11:09;;;;;;;3.87;2.43;;;;;;;;;;5064573;27;88783;-59
2023/08/27 02:13:39;;;;;;;4.50;3.37;;;;;;;;;;5063913;27;87824;-59
2023/08/27 02:16:07;;;;;;;4.67;2.33;;;;;;;;;;5064284;27;89391;-59
2023/08/27 02:18:36;;;;;;;4.97;2.67;;;;;;;;;;5063367;27;89123;-59
2023/08/27 02:21:05;;;;;;;4.00;2.93;;;;;;;;;;5063500;27;88977;-59
2023/08/27 02:23:34;;;;;;;5.20;3.23;;;;;;;;;;5064023;27;87675;-59
2023/08/27 02:26:03;;;;;;;4.03;2.87;;;;;;;;;;5062839;27;89622;-59
2023/08/27 02:28:33;;;;;;;5.13;3.03;;;;;;;;;;5063349;27;88294;-59
2023/08/27 02:31:01;;;;;;;6.67;3.40;;;;;;;;;;5063303;27;87707;-59
2023/08/27 02:33:30;;;;;;;3.80;2.90;;;;;;;;;;5064235;27;87636;-59
2023/08/27 02:35:59;;;;;;;3.90;2.53;;;;;;;;;;5063483;27;88172;-59
2023/08/27 02:38:27;;;;;;;5.20;3.37;;;;;;;;;;5063042;27;90122;-59
2023/08/27 02:40:56;;;;;;;5.90;3.40;;;;;;;;;;5063096;27;90059;-58
2023/08/27 02:43:24;;;;;;;3.40;2.80;;;;;;;;;;5062318;27;87671;-59
2023/08/27 02:45:54;;;;;;;3.87;2.53;;;;;;;;;;5063330;27;89651;-59
2023/08/27 02:48:24;;;;;;;6.60;3.17;;;;;;;;;;5063055;27;89116;-59
2023/08/27 02:50:53;;;;;;;5.90;3.33;;;;;;;;;;5062210;27;87644;-59
2023/08/27 02:53:21;;;;;;;6.90;4.03;;;;;;;;;;5062754;27;87448;-58
2023/08/27 02:55:50;;;;;;;5.07;3.13;;;;;;;;;;5063172;27;87699;-59
2023/08/27 02:58:18;;;;;;;4.13;3.00;;;;;;;;;;5062456;27;89069;-59
2023/08/27 03:00:47;;;;;;;5.57;3.93;;;;;;;;;;5063164;27;88985;-59
2023/08/27 03:03:18;;;;;;;5.37;3.53;;;;;;;;;;5062083;27;88627;-59
2023/08/27 03:05:46;;;;;;;5.40;3.77;;;;;;;;;;5063340;27;90149;-58
2023/08/27 03:08:14;;;;;;;4.53;2.87;;;;;;;;;;5063083;27;89150;-58
2023/08/27 03:10:45;;;;;;;8.70;3.73;;;;;;;;;;5063079;27;87561;-59
2023/08/27 03:13:14;;;;;;;8.90;4.43;;;;;;;;;;5063301;27;87541;-59
2023/08/27 03:15:42;;;;;;;9.97;4.93;;;;;;;;;;5061743;27;87499;-58
2023/08/27 03:18:13;;;;;;;9.83;5.50;;;;;;;;;;5062460;27;89123;-59
2023/08/27 03:20:45;;;;;;;7.80;5.20;;;;;;;;;;5062836;27;87760;-58
2023/08/27 03:23:14;;;;;;;9.23;4.90;;;;;;;;;;5062934;27;87555;-58
2023/08/27 03:25:42;;;;;;;10.37;4.93;;;;;;;;;;5062737;27;88494;-59
2023/08/27 03:28:11;;;;;;;8.80;5.50;;;;;;;;;;5061551;27;90071;-58
2023/08/27 03:30:43;;;;;;;10.87;5.00;;;;;;;;;;5063449;27;89790;-59
2023/08/27 03:33:14;;;;;;;12.77;5.53;;;;;;;;;;5063286;27;87487;-58
2023/08/27 03:35:51;;;;;;;8.73;5.40;;;;;;;;;;5062310;27;89793;-58
2023/08/27 03:38:20;;;;;;;10.83;6.03;;;;;;;;;;5062779;27;88037;-59
2023/08/27 03:40:49;;;;;;;10.50;6.67;;;;;;;;;;5062596;27;88931;-58
2023/08/27 03:43:18;;;;;;;9.87;6.60;;;;;;;;;;5061891;27;87560;-58
2023/08/27 03:45:47;;;;;;;9.60;6.47;;;;;;;;;;5062141;27;89557;-59
2023/08/27 03:48:15;;;;;;;11.47;5.53;;;;;;;;;;5061636;27;89141;-58
2023/08/27 03:50:46;;;;;;;10.90;6.57;;;;;;;;;;5062083;27;88580;-59
2023/08/27 03:53:15;;;;;;;11.10;6.20;;;;;;;;;;5061687;27;87762;-59
2023/08/27 03:55:45;;;;;;;12.20;6.37;;;;;;;;;;5062417;27;89704;-59
2023/08/27 03:58:14;;;;;;;11.20;6.07;;;;;;;;;;5061960;27;87744;-59
2023/08/27 04:00:42;;;;;;;12.37;6.27;;;;;;;;;;5060842;27;88848;-59
2023/08/27 04:03:12;;;;;;;8.07;5.43;;;;;;;;;;5062118;27;87423;-59
2023/08/27 04:05:41;;;;;;;10.40;5.70;;;;;;;;;;5062012;27;89706;-58
2023/08/27 04:08:11;;;;;;;9.23;5.23;;;;;;;;;;5062398;27;87730;-59
2023/08/27 04:10:41;;;;;;;9.77;5.93;;;;;;;;;;5061908;27;87901;-59
2023/08/27 04:13:10;;;;;;;9.17;5.03;;;;;;;;;;5061605;27;87439;-59
2023/08/27 04:15:39;;;;;;;8.67;5.10;;;;;;;;;;5061360;27;89927;-59
2023/08/27 04:18:07;;;;;;;9.10;5.13;;;;;;;;;;5061210;27;87907;-59
2023/08/27 04:20:37;;;;;;;8.50;4.70;;;;;;;;;;5060947;27;88706;-59
2023/08/27 04:23:05;;;;;;;8.87;4.77;;;;;;;;;;5062371;27;87698;-58
2023/08/27 04:25:36;;;;;;;11.43;5.23;;;;;;;;;;5062001;27;88508;-59
2023/08/27 04:28:05;;;;;;;8.33;5.60;;;;;;;;;;5060908;27;88979;-58
2023/08/27 04:30:33;;;;;;;7.93;4.77;;;;;;;;;;5061338;27;87771;-59
2023/08/27 04:33:05;;;;;;;7.20;4.50;;;;;;;;;;5061542;27;87569;-59
2023/08/27 04:35:35;;;;;;;6.57;4.67;;;;;;;;;;5061272;27;87413;-59
2023/08/27 04:38:04;;;;;;;6.87;3.83;;;;;;;;;;5060942;27;88214;-58
2023/08/27 04:40:32;;;;;;;5.50;3.57;;;;;;;;;;5061387;27;87730;-59
2023/08/27 04:43:03;;;;;;;5.17;3.87;;;;;;;;;;5060204;27;87857;-59
2023/08/27 04:45:32;;;;;;;6.23;3.80;;;;;;;;;;5060975;27;87567;-59
2023/08/27 04:48:00;;;;;;;7.97;3.70;;;;;;;;;;5061343;27;89109;-59
2023/08/27 04:50:29;;;;;;;4.83;3.83;;;;;;;;;;5060920;27;89006;-59
2023/08/27 04:52:58;;;;;;;6.03;3.10;;;;;;;;;;5061091;27;87515;-59
2023/08/27 04:55:28;;;;;;;6.50;3.63;;;;;;;;;;5060653;27;89732;-59
2023/08/27 04:57:56;;;;;;;6.40;3.70;;;;;;;;;;5060808;27;89078;-58
2023/08/27 05:00:27;;;;;;;5.53;3.57;;;;;;;;;;5061147;27;87710;-59
2023/08/27 05:02:55;;;;;;;6.60;3.70;;;;;;;;;;5061591;27;87255;-58
2023/08/27 05:05:25;;;;;;;4.53;2.67;;;;;;;;;;5061517;27;89703;-58
2023/08/27 05:07:55;;;;;;;5.73;2.73;;;;;;;;;;5060423;27;89108;-58
2023/08/27 05:10:23;;;;;;;3.73;2.77;;;;;;;;;;5060429;27;90024;-58
2023/08/27 05:12:53;;;;;;;3.87;2.50;;;;;;;;;;5061253;27;87496;-59
2023/08/27 05:15:22;;;;;;;4.83;3.17;;;;;;;;;;5059682;27;88704;-58
2023/08/27 05:17:52;;;;;;;4.40;2.63;;;;;;;;;;5060913;27;88160;-59
2023/08/27 05:20:21;;;;;;;4.10;2.63;;;;;;;;;;5061290;27;87780;-58
2023/08/27 05:22:51;;;;;;;3.90;2.73;;;;;;;;;;5061356;27;87674;-59
2023/08/27 05:25:21;;;;;;;3.20;2.60;;;;;;;;;;5061138;27;88495;-58
2023/08/27 05:27:50;;;;;;;3.40;2.10;;;;;;;;;;5060441;27;87639;-59
2023/08/27 05:30:19;;;;;;;4.60;2.47;;;;;;;;;;5055764;27;88055;-58
2023/08/27 05:32:49;;;;;;;4.03;2.33;;;;;;;;;;5053737;27;87929;-59
2023/08/27 05:35:20;;;;;;;4.27;3.07;;;;;;;;;;5060862;27;88677;-59
2023/08/27 05:37:49;;;;;;;6.43;3.13;;;;;;;;;;5060361;27;89123;-58
2023/08/27 05:40:17;;;;;;;3.03;2.43;;;;;;;;;;5060886;27;87755;-58
2023/08/27 05:42:47;;;;;;;4.33;2.63;;;;;;;;;;5060759;27;87571;-58
2023/08/27 05:45:16;;;;;;;5.70;2.40;;;;;;;;;;5061175;27;89892;-59
2023/08/27 05:47:46;;;;;;;8.13;3.07;;;;;;;;;;5060975;27;88187;-59
2023/08/27 05:50:14;;;;;;;5.67;3.50;;;;;;;;;;5061103;27;87729;-59
2023/08/27 05:52:44;;;;;;;4.87;3.07;;;;;;;;;;5061170;27;87585;-59
2023/08/27 05:55:13;;;;;;;4.33;2.97;;;;;;;;;;5059811;27;88513;-59
2023/08/27 05:57:41;;;;;;;5.83;3.97;;;;;;;;;;5059230;27;89210;-58
2023/08/27 06:00:10;;;;;;;8.00;3.33;;;;;;;;;;5060055;27;88666;-59
2023/08/27 06:02:39;;;;;;;5.27;3.70;;;;;;;;;;5059967;27;87349;-58
2023/08/27 06:05:07;;;;;;;7.17;3.67;;;;;;;;;;5060852;27;88291;-59
2023/08/27 06:07:36;;;;;;;7.07;3.40;;;;;;;;;;5060457;27;88022;-59
2023/08/27 06:10:06;;;;;;;4.77;3.23;;;;;;;;;;5059727;27;87402;-59
2023/08/27 06:12:35;;;;;;;7.77;3.27;;;;;;;;;;5059281;27;87408;-58
2023/08/27 06:15:04;;;;;;;7.37;4.17;;;;;;;;;;5060412;27;88535;-59
2023/08/27 06:17:32;;;;;;;6.53;3.73;;;;;;;;;;5060647;27;88129;-58
2023/08/27 06:20:02;;;;;;;6.53;3.60;;;;;;;;;;5059866;27;88719;-59
2023/08/27 06:22:31;;;;;;;5.10;3.20;;;;;;;;;;5059828;27;87900;-59
2023/08/27 06:24:59;;;;;;;6.07;3.43;;;;;;;;;;5059417;27;87301;-58
2023/08/27 06:27:32;;;;;;;6.47;3.17;;;;;;;;;;5059981;27;88936;-59
2023/08/27 06:30:01;;;;;;;5.77;3.47;;;;;;;;;;5060503;27;87774;-58
2023/08/27 06:32:29;;;;;;;4.77;3.20;;;;;;;;;;5060383;27;87602;-58
2023/08/27 06:34:58;;;;;;;4.47;3.10;;;;;;;;;;5060110;27;89611;-59
2023/08/27 06:37:26;;;;;;;5.33;3.23;;;;;;;;;;5059941;27;88705;-58
2023/08/27 06:39:54;;;;;;;4.20;2.77;;;;;;;;;;5059786;27;87501;-58
2023/08/27 06:42:23;;;;;;;4.67;2.97;;;;;;;;;;5059236;27;87506;-58
2023/08/27 06:44:53;;;;;;;5.83;3.73;;;;;;;;;;5060008;27;89574;-59
2023/08/27 06:47:23;;;;;;;4.30;3.10;;;;;;;;;;5059595;27;90073;-58
2023/08/27 06:49:51;;;;;;;5.10;2.73;;;;;;;;;;5059905;27;89775;-59
2023/08/27 06:52:20;;;;;;;4.40;3.30;;;;;;;;;;5063407;27;87482;-59
2023/08/27 06:54:49;;;;;;;4.70;2.70;;;;;;;;;;5062848;27;87565;-59
2023/08/27 06:57:17;;;;;;;5.83;3.27;;;;;;;;;;5062746;27;88896;-59
2023/08/27 06:59:46;;;;;;;3.97;2.97;;;;;;;;;;5063445;27;87876;-59
2023/08/27 07:02:18;;;;;;;5.37;2.87;;;;;;;;;;5063619;27;87646;-59
2023/08/27 07:04:47;;;;;;;4.20;3.00;;;;;;;;;;5063804;27;88535;-59
2023/08/27 07:07:17;;;;;;;3.23;2.13;;;;;;;;;;5063551;27;88065;-58
2023/08/27 07:09:47;;;;;;;4.73;2.40;;;;;;;;;;5063042;27;87781;-58
2023/08/27 07:12:15;;;;;;;3.50;2.20;;;;;;;;;;5063087;27;87792;-58
2023/08/27 07:14:43;;;;;;;3.10;2.13;;;;;;;;;;5063071;27;88597;-58
2023/08/27 07:17:14;;;;;;;3.93;2.50;;;;;;;;;;5062212;27;89046;-58
2023/08/27 07:19:44;;;;;;;3.43;2.10;;;;;;;;;;5061992;27;89009;-59
2023/08/27 07:22:14;;;;;;;3.20;2.20;;;;;;;;;;5062494;27;87575;-58
2023/08/27 07:24:43;;;;;;;4.17;1.90;;;;;;;;;;5062076;27;89643;-59
2023/08/27 07:27:11;;;;;;;3.53;1.97;;;;;;;;;;5062676;27;87431;-59
2023/08/27 07:29:40;;;;;;;2.53;1.90;;;;;;;;;;5062258;27;88804;-58
2023/08/27 07:32:08;;;;;;;2.93;1.73;;;;;;;;;;5060668;27;87554;-58
2023/08/27 07:34:37;;;;;;;3.00;2.00;;;;;;;;;;5038559;28;89624;-58
2023/08/27 07:37:07;;;;;;;3.37;1.87;;;;;;;;;;5051410;27;90085;-59
2023/08/27 07:39:35;;;;;;;1.50;1.40;;;;;;;;;;5059379;27;89840;-59
2023/08/27 07:42:04;;;;;;;2.30;1.90;;;;;;;;;;5058629;27;87601;-58
2023/08/27 07:44:33;;;;;;;2.00;1.50;;;;;;;;;;5058977;27;89748;-58
2023/08/27 07:47:01;;;;;;;3.93;1.73;;;;;;;;;;5059426;27;87742;-59
2023/08/27 07:49:33;;;;;;;2.13;1.43;;;;;;;;;;5059209;27;88772;-59
2023/08/27 07:52:02;;;;;;;2.23;1.83;;;;;;;;;;5059416;27;87418;-59
2023/08/27 07:54:34;;;;;;;2.17;1.33;;;;;;;;;;5058962;27;88553;-58
2023/08/27 07:57:03;;;;;;;3.70;2.17;;;;;;;;;;5059011;27;89086;-58
2023/08/27 07:59:32;;;;;;;3.37;1.70;;;;;;;;;;5059725;27;87869;-58
2023/08/27 08:02:01;;;;;;;1.67;1.57;;;;;;;;;;5059023;27;88491;-58
2023/08/27 08:04:31;;;;;;;2.27;1.30;;;;;;;;;;5058971;27;89618;-58
2023/08/27 08:07:00;;;;;;;2.63;1.80;;;;;;;;;;5059450;27;87997;-58
2023/08/27 08:09:28;;;;;;;2.83;1.53;;;;;;;;;;5059008;27;88803;-59
2023/08/27 08:11:58;;;;;;;2.23;1.43;;;;;;;;;;5059764;27;87649;-58
2023/08/27 08:14:27;;;;;;;2.13;1.30;;;;;;;;;;5058965;27;88578;-58
2023/08/27 08:16:57;;;;;;;1.87;1.20;;;;;;;;;;5059110;27;88133;-59
2023/08/27 08:19:26;;;;;;;1.40;1.30;;;;;;;;;;5059359;27;89104;-58
2023/08/27 08:21:55;;;;;;;1.80;1.67;;;;;;;;;;5058814;27;87801;-58
2023/08/27 08:24:24;;;;;;;5.93;1.70;;;;;;;;;;5059310;27;89754;-59
2023/08/27 08:26:53;;;;;;;3.37;1.60;;;;;;;;;;5058124;27;88909;-59
2023/08/27 08:29:27;;;;;;;2.17;1.70;;;;;;;;;;5059067;27;89765;-59
2023/08/27 08:31:58;;;;;;;2.10;1.40;;;;;;;;;;5059352;27;87514;-59
2023/08/27 08:34:29;;;;;;;3.37;1.53;;;;;;;;;;5059174;27;88145;-59
2023/08/27 08:37:00;;;;;;;3.57;1.27;;;;;;;;;;5058386;27;88618;-59
2023/08/27 08:39:28;;;;;;;3.27;1.47;;;;;;;;;;5058655;27;87859;-59
2023/08/27 08:41:59;;;;;;;1.73;1.33;;;;;;;;;;5057820;27;87673;-58
2023/08/27 08:44:31;;;;;;;3.17;2.13;;;;;;;;;;5058279;27;89341;-58
2023/08/27 08:47:02;;;;;;;2.77;1.87;;;;;;;;;;5057701;27;88262;-59
2023/08/27 08:49:31;;;;;;;1.80;1.20;;;;;;;;;;5058423;27;87975;-59
2023/08/27 08:52:10;;;;;;;2.67;1.97;;;;;;;;;;5057196;27;87958;-59
2023/08/27 08:54:38;;;;;;;2.37;1.37;;;;;;;;;;5057373;27;88409;-59
2023/08/27 08:57:08;;;;;;;2.33;1.60;;;;;;;;;;5058204;27;87902;-59
2023/08/27 08:59:38;;;;;;;6.23;1.83;;;;;;;;;;5058714;27;88722;-59
2023/08/27 09:02:06;;;;;;;2.17;1.63;;;;;;;;;;5058999;27;87689;-59
2023/08/27 09:04:35;;;;;;;2.53;1.63;;;;;;;;;;5058337;27;89457;-59
2023/08/27 09:07:06;;;;;;;2.43;1.93;;;;;;;;;;5058289;27;88039;-59
2023/08/27 09:09:35;;;;;;;3.53;1.80;;;;;;;;;;5058417;27;88447;-59
2023/08/27 09:12:03;;;;;;;2.63;2.03;;;;;;;;;;5058088;27;87804;-58
2023/08/27 09:14:33;;;;;;;3.53;1.70;;;;;;;;;;5057853;27;88718;-59
2023/08/27 09:17:16;;;;;;;2.70;1.90;;;;;;;;;;5056963;27;88704;-59
2023/08/27 09:19:52;;;;;;;2.33;1.77;;;;;;;;;;5058103;27;89953;-59
2023/08/27 09:22:27;;;;;;;3.43;2.00;;;;;;;;;;5058110;27;87384;-59
2023/08/27 09:24:56;;;;;;;3.03;1.70;;;;;;;;;;5057522;27;89389;-59
2023/08/27 09:27:26;;;;;;;3.87;2.40;;;;;;;;;;5057796;27;89179;-59
2023/08/27 09:29:54;;;;;;;3.97;2.43;;;;;;;;;;5057555;27;88695;-59
2023/08/27 09:32:27;;;;;;;2.80;1.90;;;;;;;;;;5057753;27;87578;-59
2023/08/27 09:34:58;;;;;;;2.67;1.87;;;;;;;;;;5057351;27;88995;-59
2023/08/27 09:37:28;;;;;;;5.33;3.10;;;;;;;;;;5057580;27;88181;-59
2023/08/27 09:40:03;;;;;;;5.23;2.60;;;;;;;;;;5057790;27;88747;-58
2023/08/27 09:42:35;;;;;;;3.27;2.57;;;;;;;;;;5056665;27;87964;-58
2023/08/27 09:45:03;;;;;;;4.00;2.47;;;;;;;;;;5057364;27;89383;-58
2023/08/27 09:47:36;;;;;;;3.83;2.60;;;;;;;;;;5057305;27;87652;-59
2023/08/27 09:50:07;;;;;;;6.03;2.40;;;;;;;;;;5056033;27;87611;-58
2023/08/27 09:52:36;;;;;;;4.07;2.10;;;;;;;;;;5057444;27;87705;-58
2023/08/27 09:55:05;;;;;;;3.60;2.33;;;;;;;;;;5054779;27;89659;-59
2023/08/27 09:57:43;;;;;;;5.00;2.67;;;;;;;;;;5057609;27;88699;-58
2023/08/27 10:00:14;;;;;;;4.90;2.63;;;;;;;;;;5057860;27;87482;-59
2023/08/27 10:02:46;;;;;;;4.20;2.03;;;;;;;;;;5057562;27;88320;-59
2023/08/27 10:05:14;;;;;;;4.77;2.73;;;;;;;;;;5057159;27;88315;-59
2023/08/27 10:07:45;;;;;;;1.83;1.57;;;;;;;;;;5056087;27;88807;-59
2023/08/27 10:10:14;;;;;;;4.10;2.63;;;;;;;;;;5056719;27;88624;-60
2023/08/27 10:12:43;;;;;;;2.97;2.03;;;;;;;;;;5057171;27;87630;-60
2023/08/27 10:15:12;;;;;;;2.90;2.17;;;;;;;;;;5057284;27;89811;-60
2023/08/27 10:17:41;;;;;;;3.20;1.90;;;;;;;;;;5057418;27;89389;-59
2023/08/27 10:20:12;;;;;;;2.57;1.93;;;;;;;;;;5056903;27;88831;-59
2023/08/27 10:22:42;;;;;;;3.10;2.33;;;;;;;;;;5057783;27;87690;-60
2023/08/27 10:25:10;;;;;;;2.80;2.00;;;;;;;;;;5058231;27;89735;-60
2023/08/27 10:27:40;;;;;;;3.63;2.13;;;;;;;;;;5061117;27;89229;-59
2023/08/27 10:30:09;;;;;;;3.27;2.07;;;;;;;;;;5060592;27;88793;-60
2023/08/27 10:32:38;;;;;;;4.50;1.90;;;;;;;;;;5059821;27;88782;-59
2023/08/27 10:35:07;;;;;;;3.83;2.00;;;;;;;;;;5060202;27;88513;-59
2023/08/27 10:37:37;;;;;;;4.90;1.67;;;;;;;;;;5060086;27;88872;-59
2023/08/27 10:40:09;;;;;;;3.30;1.83;;;;;;;;;;5060023;27;88899;-60
2023/08/27 10:42:39;;;;;;;5.70;2.10;;;;;;;;;;5059666;27;88122;-60
2023/08/27 10:45:14;;;;;;;2.43;1.87;;;;;;;;;;5059495;27;89701;-60
2023/08/27 10:47:43;;;;;;;2.83;2.40;;;;;;;;;;5057150;27;89464;-60
2023/08/27 10:50:13;;;;;;;5.13;2.90;;;;;;;;;;5060108;27;88031;-60
2023/08/27 10:52:55;;;;;;;3.70;2.00;;;;;;;;;;5060215;27;87761;-60
2023/08/27 10:55:34;;;;;;;3.77;2.30;;;;;;;;;;5059828;27;89709;-60
2023/08/27 10:58:15;;;;;;;4.77;2.80;;;;;;;;;;5059029;27;90279;-60
2023/08/27 11:01:02;;;;;;;5.37;3.10;;;;;;;;;;5060119;27;89774;-60
2023/08/27 11:03:45;;;;;;;4.73;2.93;;;;;;;;;;5060348;27;87581;-60
2023/08/27 11:06:15;;;;;;;6.87;2.53;;;;;;;;;;5059415;27;88621;-60
2023/08/27 11:08:44;;;;;;;4.43;2.67;;;;;;;;;;5060148;27;89023;-60
2023/08/27 11:11:15;;;;;;;4.60;2.33;;;;;;;;;;5059250;27;88982;-60
2023/08/27 11:13:47;;;;;;;5.07;2.63;;;;;;;;;;5059663;27;87652;-59
2023/08/27 11:16:16;;;;;;;5.47;2.47;;;;;;;;;;5059616;27;88555;-60
2023/08/27 11:18:46;;;;;;;7.43;3.77;;;;;;;;;;5059761;27;87606;-60
2023/08/27 11:21:21;;;;;;;4.97;3.00;;;;;;;;;;5059424;27;87736;-60
2023/08/27 11:24:08;;;;;;;4.60;2.63;;;;;;;;;;5059872;27;88143;-60
2023/08/27 11:26:38;;;;;;;6.63;2.77;;;;;;;;;;5059347;27;89600;-59
2023/08/27 11:29:06;;;;;;;4.30;2.90;;;;;;;;;;5059691;27;89078;-60
2023/08/27 11:31:35;;;;;;;8.13;3.00;;;;;;;;;;5059436;27;88868;-60
2023/08/27 11:34:05;;;;;;;4.93;3.40;;;;;;;;;;5060145;27;87770;-60
2023/08/27 11:36:34;;;;;;;7.63;2.73;;;;;;;;;;5058964;27;92644;-60
2023/08/27 11:39:07;;;;;;;4.70;2.23;;;;;;;;;;5059056;27;88917;-60
2023/08/27 11:41:36;;;;;;;4.60;2.67;;;;;;;;;;5059649;27;88897;-60
2023/08/27 11:44:07;;;;;;;6.27;2.73;;;;;;;;;;5058733;27;88157;-60
2023/08/27 11:46:36;;;;;;;3.97;2.50;;;;;;;;;;5059283;27;88909;-60
2023/08/27 11:49:05;;;;;;;4.73;2.63;;;;;;;;;;5058900;27;89231;-60
2023/08/27 11:51:36;;;;;;;6.47;2.90;;;;;;;;;;5059412;27;89746;-59
2023/08/27 11:54:06;;;;;;;6.97;2.80;;;;;;;;;;5059439;27;87570;-59
2023/08/27 11:56:37;;;;;;;4.37;2.67;;;;;;;;;;5058426;27;89317;-59
2023/08/27 11:59:07;;;;;;;5.17;2.67;;;;;;;;;;5059244;27;89106;-59
2023/08/27 12:01:35;;;;;;;8.03;3.07;;;;;;;;;;5058971;27;88782;-59
2023/08/27 12:04:04;;;;;;;9.70;2.90;;;;;;;;;;5059774;27;87710;-59
2023/08/27 12:06:33;;;;;;;3.97;2.33;;;;;;;;;;5059612;27;87538;-59
2023/08/27 12:09:03;;;;;;;3.57;2.30;;;;;;;;;;5057479;27;89433;-59
2023/08/27 12:11:32;;;;;;;4.30;2.47;;;;;;;;;;5058525;27;87772;-59
2023/08/27 12:14:00;;;;;;;6.00;3.00;;;;;;;;;;5058715;27;87918;-59
2023/08/27 12:16:30;;;;;;;4.30;2.50;;;;;;;;;;5058484;27;89544;-59
2023/08/27 12:19:05;;;;;;;7.03;3.13;;;;;;;;;;5058235;27;88269;-59
2023/08/27 12:21:34;;;;;;;7.10;2.93;;;;;;;;;;5058340;27;88928;-59
2023/08/27 12:24:03;;;;;;;5.67;2.93;;;;;;;;;;5059243;27;87650;-59
2023/08/27 12:26:31;;;;;;;6.13;3.10;;;;;;;;;;5059000;27;89551;-59
2023/08/27 12:29:00;;;;;;;3.77;2.10;;;;;;;;;;5058528;27;89186;-60
2023/08/27 12:31:31;;;;;;;3.13;2.40;;;;;;;;;;5058337;27;88881;-59
2023/08/27 12:34:01;;;;;;;6.10;2.40;;;;;;;;;;5058167;27;87677;-60
2023/08/27 12:36:30;;;;;;;4.07;3.00;;;;;;;;;;5057814;27;88551;-60
2023/08/27 12:38:58;;;;;;;4.73;2.33;;;;;;;;;;5057669;27;89138;-61
2023/08/27 12:41:27;;;;;;;4.03;2.43;;;;;;;;;;5058382;27;89952;-60
2023/08/27 12:43:55;;;;;;;3.40;2.40;;;;;;;;;;5057248;27;88650;-60
2023/08/27 12:46:25;;;;;;;4.63;2.37;;;;;;;;;;5058704;27;89138;-59
2023/08/27 12:48:53;;;;;;;7.00;2.73;;;;;;;;;;5056997;27;89083;-60
2023/08/27 12:51:23;;;;;;;3.83;2.50;;;;;;;;;;5058658;27;87727;-60
2023/08/27 12:53:52;;;;;;;4.83;2.90;;;;;;;;;;5058384;27;88313;-60
2023/08/27 12:56:20;;;;;;;5.93;2.53;;;;;;;;;;5057761;27;89699;-60
2023/08/27 12:58:50;;;;;;;3.23;2.60;;;;;;;;;;5058476;27;88079;-60
2023/08/27 13:01:19;;;;;;;6.50;3.23;;;;;;;;;;5058703;27;88849;-60
2023/08/27 13:03:47;;;;;;;5.13;3.17;;;;;;;;;;5057672;27;88002;-60
2023/08/27 13:06:16;;;;;;;6.40;2.87;;;;;;;;;;5057695;27;89761;-60
2023/08/27 13:08:46;;;;;;;4.13;2.97;;;;;;;;;;5058214;27;88026;-60
2023/08/27 13:11:14;;;;;;;6.47;3.33;;;;;;;;;;5058573;27;87905;-60
2023/08/27 13:13:43;;;;;;;5.70;3.47;;;;;;;;;;5058531;27;87649;-60
2023/08/27 13:16:11;;;;;;;5.73;3.53;;;;;;;;;;5058463;27;89604;-60
2023/08/27 13:18:40;;;;;;;6.47;4.20;;;;;;;;;;5057896;27;88143;-60
2023/08/27 13:21:08;;;;;;;7.57;3.77;;;;;;;;;;5058313;27;88935;-60
2023/08/27 13:23:37;;;;;;;6.83;4.30;;;;;;;;;;5058559;27;87412;-60
2023/08/27 13:26:07;;;;;;;5.33;3.73;;;;;;;;;;5057155;27;89723;-60
2023/08/27 13:28:35;;;;;;;7.80;4.27;;;;;;;;;;5056696;27;88981;-60
2023/08/27 13:31:05;;;;;;;6.57;4.17;;;;;;;;;;5057802;27;89633;-60
2023/08/27 13:33:35;;;;;;;10.00;4.70;;;;;;;;;;5057624;27;87656;-60
2023/08/27 13:36:05;;;;;;;7.93;4.40;;;;;;;;;;5057208;27;89571;-60
2023/08/27 13:38:34;;;;;;;5.70;4.13;;;;;;;;;;5057326;27;88832;-60
2023/08/27 13:41:02;;;;;;;10.20;5.17;;;;;;;;;;5057506;27;87464;-60
2023/08/27 13:43:34;;;;;;;8.07;4.83;;;;;;;;;;5057034;27;87626;-60
2023/08/27 13:46:03;;;;;;;7.30;4.93;;;;;;;;;;5056754;27;88709;-60
2023/08/27 13:48:32;;;;;;;8.67;4.83;;;;;;;;;;5057347;27;88106;-60
2023/08/27 13:51:01;;;;;;;8.13;4.63;;;;;;;;;;5058062;27;88896;-60
2023/08/27 13:53:31;;;;;;;8.47;4.37;;;;;;;;;;5057705;27;88380;-60
2023/08/27 13:55:59;;;;;;;7.33;4.57;;;;;;;;;;5056849;27;89811;-59
2023/08/27 13:58:29;;;;;;;7.33;4.50;;;;;;;;;;5057628;27;89117;-59
2023/08/27 14:00:59;;;;;;;6.87;4.53;;;;;;;;;;5060692;27;89274;-60
2023/08/27 14:03:29;;;;;;;9.67;5.47;;;;;;;;;;5060659;27;87586;-59
2023/08/27 14:05:58;;;;;;;7.40;4.77;;;;;;;;;;5060989;27;89714;-59
2023/08/27 14:08:27;;;;;;;6.23;4.07;;;;;;;;;;5061014;27;88029;-59
2023/08/27 14:10:55;;;;;;;7.33;4.53;;;;;;;;;;5060686;27;87751;-59
2023/08/27 14:13:24;;;;;;;6.07;3.90;;;;;;;;;;5061103;27;87582;-59
2023/08/27 14:15:53;;;;;;;5.53;3.60;;;;;;;;;;5060601;27;87452;-59
2023/08/27 14:18:24;;;;;;;5.83;4.13;;;;;;;;;;5060092;27;89131;-59
2023/08/27 14:20:52;;;;;;;9.23;4.47;;;;;;;;;;5060659;27;88387;-59
2023/08/27 14:23:21;;;;;;;5.27;4.10;;;;;;;;;;5060530;27;87663;-59
2023/08/27 14:25:49;;;;;;;7.00;3.60;;;;;;;;;;5060574;27;89480;-59
2023/08/27 14:28:17;;;;;;;4.43;2.90;;;;;;;;;;5060068;27;87832;-59
2023/08/27 14:30:48;;;;;;;5.73;3.07;;;;;;;;;;5060517;27;88742;-59
2023/08/27 14:33:17;;;;;;;5.70;4.03;;;;;;;;;;5060616;27;87671;-59
2023/08/27 14:35:47;;;;;;;5.97;3.70;;;;;;;;;;5060661;27;89419;-59
2023/08/27 14:38:15;;;;;;;6.00;3.77;;;;;;;;;;5060787;27;87879;-59
2023/08/27 14:40:44;;;;;;;6.33;4.23;;;;;;;;;;5060326;27;87749;-59
2023/08/27 14:43:12;;;;;;;5.03;3.60;;;;;;;;;;5059337;27;88058;-59
2023/08/27 14:45:41;;;;;;;6.87;3.80;;;;;;;;;;5059943;27;89576;-59
2023/08/27 14:48:09;;;;;;;5.87;3.80;;;;;;;;;;5059455;27;89191;-59
2023/08/27 14:50:38;;;;;;;6.93;3.67;;;;;;;;;;5060305;27;88015;-59
2023/08/27 14:53:08;;;;;;;5.37;3.70;;;;;;;;;;5061035;27;87690;-59
2023/08/27 14:55:36;;;;;;;4.90;3.27;;;;;;;;;;5059567;27;88534;-59
2023/08/27 14:58:05;;;;;;;5.67;4.10;;;;;;;;;;5059901;27;87993;-59